Time;durP1;ratioP1;P1;durP2;ratioP2;P2;SDS_P1;SDS_P2;PMS_P1;PMS_P2;Temp;Humidity;BMP_temperature;BMP_pressure;BME280_temperature;BME280_humidity;BME280_pressure;Samples;Min_cycle;Max_cycle;Signal;HPM_P1;HPM_P2
2023/11/18 00:01:08;;;;;;;12.50;8.10;;;;;;;9.53;78.73;98534.50;6143100;23;19997;-95
2023/11/18 00:03:55;;;;;;;15.40;9.43;;;;;;;9.64;80.05;98557.50;6163955;23;20014;-95
2023/11/18 00:06:28;;;;;;;9.27;7.05;;;;;;;9.43;79.41;98528.13;6118726;23;20001;-95
2023/11/18 00:09:03;;;;;;;9.80;7.85;;;;;;;9.63;79.89;98567.47;6119181;23;20009;-95
2023/11/18 00:11:32;;;;;;;13.00;7.28;;;;;;;9.69;79.86;98579.78;6143139;23;20345;-95
2023/11/18 00:14:07;;;;;;;8.35;5.72;;;;;;;9.41;77.94;98559.84;6164313;23;20056;-95
2023/11/18 00:16:35;;;;;;;7.60;5.65;;;;;;;9.65;76.62;98565.31;6116309;23;20084;-95
2023/11/18 00:19:01;;;;;;;8.18;4.90;;;;;;;9.77;75.41;98566.81;6140715;23;20519;-94
2023/11/18 00:21:28;;;;;;;4.68;3.88;;;;;;;9.58;74.98;98547.88;6164653;23;20072;-95
2023/11/18 00:23:55;;;;;;;5.78;3.90;;;;;;;9.58;76.17;98543.31;6167310;23;20001;-95
2023/11/18 00:26:21;;;;;;;5.88;4.05;;;;;;;9.66;76.59;98548.06;6142673;23;20438;-95
2023/11/18 00:28:51;;;;;;;6.13;3.22;;;;;;;9.80;74.31;98555.50;6167118;23;19998;-95
2023/11/18 00:31:20;;;;;;;3.03;2.30;;;;;;;9.67;73.48;98573.06;6118002;23;20013;-95
2023/11/18 00:33:49;;;;;;;3.67;2.15;;;;;;;9.49;73.55;98555.75;6116613;23;20005;-95
2023/11/18 00:36:18;;;;;;;2.60;2.03;;;;;;;9.74;73.45;98592.38;6142591;23;20084;-96
2023/11/18 00:38:44;;;;;;;2.78;2.17;;;;;;;9.68;73.13;98599.66;6116888;23;20009;-95
2023/11/18 00:41:12;;;;;;;2.13;1.50;;;;;;;9.75;72.91;98598.53;6117351;23;20013;-95
2023/11/18 00:43:41;;;;;;;3.55;1.98;;;;;;;9.29;72.65;98575.50;6116589;23;20028;-95
2023/11/18 00:46:08;;;;;;;3.10;1.95;;;;;;;9.32;73.22;98580.34;6118926;23;20033;-96
2023/11/18 00:48:36;;;;;;;2.83;2.10;;;;;;;9.51;73.57;98623.47;6141243;23;19997;-95
2023/11/18 00:51:04;;;;;;;2.35;1.88;;;;;;;9.41;73.30;98607.41;6117036;23;20032;-95
2023/11/18 00:53:39;;;;;;;2.90;2.22;;;;;;;9.50;72.72;98601.16;6140722;23;20004;-95
2023/11/18 00:56:11;;;;;;;3.05;2.20;;;;;;;9.47;72.56;98604.41;6145758;23;19993;-95
2023/11/18 00:58:40;;;;;;;3.42;2.72;;;;;;;9.28;71.69;98611.53;6117892;23;20073;-95
2023/11/18 01:01:08;;;;;;;5.47;2.72;;;;;;;9.24;71.26;98605.09;6140886;23;20028;-94
2023/11/18 01:03:34;;;;;;;4.60;2.90;;;;;;;9.16;72.97;98617.22;6138896;23;20017;-95
2023/11/18 01:06:13;;;;;;;5.28;3.03;;;;;;;8.93;73.66;98593.75;6163648;23;19997;-95
2023/11/18 01:08:39;;;;;;;4.75;3.15;;;;;;;9.19;73.93;98632.78;6117961;23;20029;-95
2023/11/18 01:11:10;;;;;;;4.78;3.30;;;;;;;9.15;74.24;98620.19;6140295;23;20388;-94
2023/11/18 01:13:36;;;;;;;3.58;3.13;;;;;;;9.06;73.13;98593.91;6115481;23;20052;-95
2023/11/18 01:16:06;;;;;;;5.68;3.65;;;;;;;9.01;72.96;98595.84;6115245;23;20005;-95
2023/11/18 01:18:33;;;;;;;5.28;3.67;;;;;;;8.90;72.18;98568.22;6141613;23;20006;-95
2023/11/18 01:21:21;;;;;;;5.32;3.90;;;;;;;9.13;71.02;98590.13;6113306;23;20008;-94
2023/11/18 01:23:48;;;;;;;4.50;3.50;;;;;;;8.99;72.92;98609.53;6142751;23;20008;-94
2023/11/18 01:26:14;;;;;;;5.43;4.00;;;;;;;8.89;71.86;98612.28;6140773;23;20053;-95
2023/11/18 01:28:44;;;;;;;5.53;4.28;;;;;;;8.86;73.18;98602.06;6114105;23;20008;-95
2023/11/18 01:31:16;;;;;;;4.78;4.00;;;;;;;8.99;71.52;98617.59;6116109;23;20005;-94
2023/11/18 01:33:42;;;;;;;6.43;3.78;;;;;;;9.02;70.64;98617.03;6117252;23;20001;-95
2023/11/18 01:36:08;;;;;;;5.65;4.07;;;;;;;9.07;70.24;98618.91;6140906;23;20060;-95
2023/11/18 01:38:37;;;;;;;6.25;4.50;;;;;;;8.96;70.99;98609.28;6117277;23;20452;-94
2023/11/18 01:41:13;;;;;;;5.03;4.00;;;;;;;9.09;71.38;98625.59;6117177;23;20005;-95
2023/11/18 01:43:46;;;;;;;6.85;4.70;;;;;;;8.93;71.62;98599.91;6119140;23;20100;-94
2023/11/18 01:46:12;;;;;;;5.07;4.00;;;;;;;8.90;70.48;98603.97;6115321;23;20384;-95
2023/11/18 01:48:47;;;;;;;4.60;3.85;;;;;;;8.60;70.15;98588.78;6091481;23;20008;-95
2023/11/18 01:51:14;;;;;;;4.38;3.17;;;;;;;8.55;69.75;98572.72;6115525;23;20059;-95
2023/11/18 01:53:43;;;;;;;5.13;3.85;;;;;;;8.54;70.06;98564.94;6089877;23;20071;-95
2023/11/18 01:56:19;;;;;;;4.82;3.88;;;;;;;8.58;70.55;98563.31;6139056;23;20002;-94
2023/11/18 01:58:45;;;;;;;4.55;3.30;;;;;;;8.70;70.25;98577.22;6120266;23;20001;-96
2023/11/18 02:01:17;;;;;;;4.97;3.55;;;;;;;8.87;69.78;98603.69;6117535;23;20021;-94
2023/11/18 02:03:49;;;;;;;4.03;3.23;;;;;;;8.69;69.66;98595.19;6145653;23;20025;-94
2023/11/18 02:06:15;;;;;;;6.60;3.53;;;;;;;8.60;71.90;98598.72;6120231;23;20224;-94
2023/11/18 02:08:43;;;;;;;9.77;3.45;;;;;;;8.55;70.69;98582.63;6120868;23;20001;-94
2023/11/18 02:11:29;;;;;;;4.15;3.50;;;;;;;8.43;70.20;98578.38;6144886;23;20005;-95
2023/11/18 02:13:54;;;;;;;5.05;3.45;;;;;;;8.64;70.74;98586.34;6143911;23;20012;-95
2023/11/18 02:16:21;;;;;;;4.35;3.22;;;;;;;8.74;70.27;98589.00;6119131;23;20005;-94
2023/11/18 02:18:47;;;;;;;3.67;3.13;;;;;;;8.50;68.96;98557.41;6145546;23;20404;-95
2023/11/18 02:21:14;;;;;;;3.70;2.88;;;;;;;8.46;69.41;98577.81;6144024;23;20084;-94
2023/11/18 02:24:01;;;;;;;4.53;3.33;;;;;;;8.54;70.94;98599.81;6117238;23;20283;-94
2023/11/18 02:26:27;;;;;;;5.07;3.47;;;;;;;8.58;70.20;98607.03;6085206;23;20006;-95
2023/11/18 02:28:53;;;;;;;3.55;2.90;;;;;;;8.55;69.42;98594.19;6082977;23;19997;-94
2023/11/18 02:31:31;;;;;;;4.55;3.30;;;;;;;8.55;70.67;98630.91;6105819;23;20006;-95
2023/11/18 02:34:16;;;;;;;3.42;2.65;;;;;;;8.50;67.91;98610.28;6082771;23;20006;-93
2023/11/18 02:36:47;;;;;;;3.05;2.28;;;;;;;8.66;68.99;98644.03;6094279;23;20017;-95
2023/11/18 02:39:42;;;;;;;3.80;2.45;;;;;;;8.42;69.14;98608.97;6115799;23;20005;-96
2023/11/18 02:42:14;;;;;;;4.05;2.38;;;;;;;8.60;67.07;98633.59;6111318;23;20430;-94
2023/11/18 02:44:46;;;;;;;2.60;2.00;;;;;;;8.48;68.09;98613.22;6110147;23;20029;-94
2023/11/18 02:47:16;;;;;;;2.77;2.03;;;;;;;8.44;67.65;98609.47;6063351;23;20007;-95
2023/11/18 02:49:42;;;;;;;2.38;1.85;;;;;;;8.38;67.42;98612.44;6087219;23;20278;-95
2023/11/18 02:52:13;;;;;;;3.13;2.05;;;;;;;8.49;67.88;98630.94;6086379;23;20003;-94
2023/11/18 02:54:42;;;;;;;2.47;1.70;;;;;;;8.43;66.65;98621.31;6087307;23;20021;-95
2023/11/18 02:57:16;;;;;;;2.78;1.92;;;;;;;8.34;67.46;98604.13;6118847;23;20064;-94
2023/11/18 02:59:46;;;;;;;4.35;2.38;;;;;;;8.53;67.19;98630.38;6115729;23;20010;-95
2023/11/18 03:02:15;;;;;;;3.08;2.08;;;;;;;8.46;68.78;98609.22;6106220;23;20026;-94
2023/11/18 03:04:44;;;;;;;5.80;2.10;;;;;;;8.50;68.88;98621.81;6081665;23;20089;-96
2023/11/18 03:07:10;;;;;;;2.10;1.80;;;;;;;8.53;66.74;98606.25;6081717;23;20038;-96
2023/11/18 03:09:39;;;;;;;2.95;2.10;;;;;;;8.57;66.04;98615.34;6082804;23;20470;-95
2023/11/18 03:12:07;;;;;;;3.30;1.90;;;;;;;8.52;65.74;98602.75;6112164;23;20085;-95
2023/11/18 03:14:34;;;;;;;2.63;1.85;;;;;;;8.44;66.04;98590.72;6141400;23;20005;-96
2023/11/18 03:17:02;;;;;;;2.75;1.90;;;;;;;8.57;65.44;98596.56;6141560;23;20005;-96
2023/11/18 03:19:31;;;;;;;6.57;2.40;;;;;;;8.50;66.19;98594.19;6116059;23;20526;-95
2023/11/18 03:21:59;;;;;;;2.58;1.90;;;;;;;8.42;64.48;98586.69;6166338;23;19997;-96
2023/11/18 03:24:37;;;;;;;2.90;1.92;;;;;;;8.46;65.52;98607.34;6118848;23;20009;-96
2023/11/18 03:27:06;;;;;;;2.80;1.92;;;;;;;8.21;65.31;98562.59;6142448;23;20005;-96
2023/11/18 03:29:34;;;;;;;2.72;1.70;;;;;;;8.39;65.48;98592.59;6144144;23;20396;-96
2023/11/18 03:32:01;;;;;;;3.65;1.75;;;;;;;8.29;66.56;98588.84;6143079;23;20005;-96
2023/11/18 03:34:37;;;;;;;2.75;1.70;;;;;;;8.15;67.38;98576.28;6142314;23;20076;-96
2023/11/18 03:37:07;;;;;;;2.00;1.58;;;;;;;8.24;66.10;98621.06;6122164;23;20001;-96
2023/11/18 03:39:35;;;;;;;1.90;1.30;;;;;;;8.23;64.99;98606.03;6119415;23;20432;-96
2023/11/18 03:42:09;;;;;;;3.47;1.40;;;;;;;8.26;64.63;98620.78;6144089;23;19997;-96
2023/11/18 03:44:35;;;;;;;1.85;1.30;;;;;;;8.17;64.45;98592.91;6120156;23;20065;-96
2023/11/18 03:47:02;;;;;;;2.85;1.30;;;;;;;8.10;63.86;98571.75;6118621;23;20093;-96
2023/11/18 03:49:38;;;;;;;1.30;1.10;;;;;;;8.30;64.24;98609.25;6118309;23;19997;-95
2023/11/18 03:52:06;;;;;;;2.25;1.40;;;;;;;7.93;64.99;98582.78;6143458;23;20011;-96
2023/11/18 03:54:34;;;;;;;1.77;1.38;;;;;;;8.03;64.61;98595.34;6142448;23;20089;-96
2023/11/18 03:57:03;;;;;;;1.83;1.13;;;;;;;8.06;64.62;98589.44;6120577;23;20428;-96
2023/11/18 03:59:31;;;;;;;1.50;1.20;;;;;;;7.88;64.90;98580.88;6141506;23;20001;-96
2023/11/18 04:02:01;;;;;;;2.35;1.40;;;;;;;7.85;64.66;98584.13;6120548;23;20493;-96
2023/11/18 04:04:29;;;;;;;1.30;1.08;;;;;;;7.95;64.67;98604.75;6143234;23;20425;-96
2023/11/18 04:06:57;;;;;;;2.20;1.13;;;;;;;7.85;63.52;98580.66;6167058;23;19997;-95
2023/11/18 04:09:26;;;;;;;1.20;1.00;;;;;;;7.75;63.34;98548.50;6140741;23;19997;-96
2023/11/18 04:12:00;;;;;;;1.60;1.20;;;;;;;7.74;63.84;98550.38;6119441;23;20440;-96
2023/11/18 04:14:28;;;;;;;1.27;1.00;;;;;;;7.79;63.60;98569.13;6143325;23;20445;-95
2023/11/18 04:16:55;;;;;;;1.90;1.08;;;;;;;7.73;62.89;98547.97;6166494;23;20005;-96
2023/11/18 04:19:21;;;;;;;1.08;0.98;;;;;;;7.63;62.91;98548.75;6140539;23;20417;-95
2023/11/18 04:21:50;;;;;;;1.58;1.10;;;;;;;7.58;63.81;98548.78;6115379;23;20001;-95
2023/11/18 04:24:21;;;;;;;1.35;1.00;;;;;;;7.54;64.52;98550.41;6139924;23;20016;-96
2023/11/18 04:26:48;;;;;;;2.33;1.00;;;;;;;7.68;65.13;98584.41;6118001;23;20064;-96
2023/11/18 04:29:14;;;;;;;1.38;0.98;;;;;;;7.45;65.60;98558.97;6140312;23;19997;-95
2023/11/18 04:31:41;;;;;;;1.00;0.90;;;;;;;7.44;64.13;98559.22;6115594;23;20009;-96
2023/11/18 04:34:06;;;;;;;1.40;0.90;;;;;;;7.56;62.61;98567.00;6140440;23;20028;-96
2023/11/18 04:36:32;;;;;;;0.70;0.70;;;;;;;7.38;62.99;98565.66;6115147;23;20008;-96
2023/11/18 04:39:02;;;;;;;1.27;0.90;;;;;;;7.58;62.01;98595.13;6117147;23;20005;-95
2023/11/18 04:41:29;;;;;;;1.52;0.82;;;;;;;7.52;61.83;98593.50;6165647;23;20139;-95
2023/11/18 04:43:56;;;;;;;0.88;0.77;;;;;;;7.54;61.67;98601.28;6141889;23;20001;-96
2023/11/18 04:46:21;;;;;;;0.95;0.82;;;;;;;7.41;61.90;98573.97;6116670;23;19992;-96
2023/11/18 04:48:49;;;;;;;1.02;0.80;;;;;;;7.37;61.80;98559.50;6117675;23;20001;-95
2023/11/18 04:51:17;;;;;;;0.70;0.70;;;;;;;7.39;62.42;98565.38;6140344;23;20071;-96
2023/11/18 04:53:45;;;;;;;1.58;1.10;;;;;;;7.35;63.43;98561.63;6143254;23;20017;-95
2023/11/18 04:56:19;;;;;;;1.30;1.00;;;;;;;7.25;63.84;98561.63;6139961;23;20063;-96
2023/11/18 04:58:46;;;;;;;1.38;0.80;;;;;;;7.39;63.54;98586.00;6141475;23;20036;-94
2023/11/18 05:01:19;;;;;;;1.13;0.93;;;;;;;7.30;64.20;98588.41;6118538;23;20443;-94
2023/11/18 05:03:47;;;;;;;1.30;1.00;;;;;;;7.10;64.03;98589.19;6169470;23;20036;-94
2023/11/18 05:06:13;;;;;;;1.25;1.08;;;;;;;7.32;63.96;98613.03;6123780;23;20001;-94
2023/11/18 05:08:38;;;;;;;1.80;1.00;;;;;;;7.12;64.32;98579.03;6117720;23;20088;-95
2023/11/18 05:11:06;;;;;;;1.00;0.90;;;;;;;7.22;63.32;98580.88;6146215;23;20024;-94
2023/11/18 05:13:35;;;;;;;1.33;1.00;;;;;;;7.30;63.61;98604.47;6117680;23;20001;-95
2023/11/18 05:16:01;;;;;;;1.90;1.00;;;;;;;7.21;63.49;98581.97;6121021;23;20013;-94
2023/11/18 05:18:33;;;;;;;1.23;0.90;;;;;;;7.03;64.59;98577.91;6141317;23;20419;-95
2023/11/18 05:21:06;;;;;;;1.95;1.20;;;;;;;7.17;64.22;98588.94;6142269;23;20001;-95
2023/11/18 05:23:54;;;;;;;1.73;1.02;;;;;;;7.23;63.29;98580.63;6140872;23;20005;-94
2023/11/18 05:26:24;;;;;;;2.25;1.35;;;;;;;7.25;64.48;98564.31;6161464;23;20146;-94
2023/11/18 05:28:50;;;;;;;2.03;1.27;;;;;;;7.37;64.03;98594.31;6159492;23;20032;-94
2023/11/18 05:31:16;;;;;;;3.90;1.70;;;;;;;7.24;65.23;98584.09;6110848;23;20429;-93
2023/11/18 05:33:42;;;;;;;2.00;1.27;;;;;;;7.25;65.31;98580.38;6135076;23;20377;-94
2023/11/18 05:36:11;;;;;;;1.35;0.90;;;;;;;7.25;62.87;98591.88;6111048;23;20358;-94
2023/11/18 05:38:38;;;;;;;2.83;1.20;;;;;;;7.31;62.04;98602.59;6136562;23;20019;-95
2023/11/18 05:41:16;;;;;;;;;;;;;;;;;;;;;
2023/11/18 05:43:51;;;;;;;0.90;0.80;;;;;;;7.26;61.27;98595.34;6140309;23;20036;-95
2023/11/18 05:46:22;;;;;;;2.55;1.13;;;;;;;7.18;59.27;98614.63;6143501;23;20052;-95
2023/11/18 05:48:52;;;;;;;0.80;0.80;;;;;;;7.06;59.68;98628.25;6115269;23;20078;-93
2023/11/18 05:51:29;;;;;;;0.98;0.80;;;;;;;6.85;60.14;98614.00;6115329;23;20092;-93
2023/11/18 05:53:55;;;;;;;1.08;0.82;;;;;;;6.94;60.67;98625.00;6115584;23;20056;-93
2023/11/18 05:56:26;;;;;;;1.38;1.00;;;;;;;6.99;60.19;98643.75;6120674;23;19997;-94
2023/11/18 05:58:55;;;;;;;1.07;0.90;;;;;;;6.82;60.50;98609.97;6147586;23;20400;-94
2023/11/18 06:01:29;;;;;;;0.90;0.80;;;;;;;6.87;60.28;98627.94;6145247;23;20229;-94
2023/11/18 06:03:56;;;;;;;1.65;0.90;;;;;;;6.91;61.12;98637.06;6166534;23;20052;-95
2023/11/18 06:06:25;;;;;;;2.25;1.30;;;;;;;7.00;61.49;98648.84;6166229;23;20001;-94
2023/11/18 06:09:04;;;;;;;1.25;0.80;;;;;;;7.14;60.60;98681.28;6140877;23;19996;-93
2023/11/18 06:11:32;;;;;;;0.98;0.70;;;;;;;7.00;60.14;98654.19;6168250;23;20016;-94
2023/11/18 06:14:01;;;;;;;3.20;1.40;;;;;;;6.83;58.96;98621.50;6142505;23;20070;-95
2023/11/18 06:16:26;;;;;;;0.80;0.75;;;;;;;6.95;58.73;98648.00;6144180;23;20007;-93
2023/11/18 06:18:56;;;;;;;0.82;0.73;;;;;;;7.02;59.05;98665.44;6144174;23;20098;-94
2023/11/18 06:21:33;;;;;;;1.70;0.88;;;;;;;6.82;59.68;98644.75;6165745;23;20420;-94
2023/11/18 06:24:05;;;;;;;0.93;0.70;;;;;;;6.91;59.08;98642.41;6144984;23;20005;-94
2023/11/18 06:26:31;;;;;;;1.45;1.00;;;;;;;6.95;59.25;98623.94;6167766;23;20424;-94
2023/11/18 06:29:00;;;;;;;1.17;0.70;;;;;;;6.89;58.58;98599.03;6142781;23;20055;-94
2023/11/18 06:31:26;;;;;;;0.73;0.70;;;;;;;6.99;58.37;98604.44;6171340;23;20115;-95
2023/11/18 06:33:52;;;;;;;1.00;0.70;;;;;;;7.02;58.88;98624.50;6142325;23;20087;-95
2023/11/18 06:36:46;;;;;;;1.58;0.88;;;;;;;7.01;58.50;98615.63;6144407;23;20001;-94
2023/11/18 06:39:14;;;;;;;1.30;0.82;;;;;;;7.11;58.59;98632.81;6109203;23;20006;-95
2023/11/18 06:41:48;;;;;;;9.40;1.25;;;;;;;7.04;57.86;98619.69;6087452;23;20002;-95
2023/11/18 06:44:25;;;;;;;1.27;0.80;;;;;;;7.11;57.47;98644.31;6094584;23;20002;-95
2023/11/18 06:46:51;;;;;;;0.73;0.70;;;;;;;6.90;56.95;98629.28;6081968;23;20088;-96
2023/11/18 06:49:19;;;;;;;1.45;0.80;;;;;;;6.92;57.88;98638.63;6107296;23;20080;-95
2023/11/18 06:51:48;;;;;;;0.95;0.75;;;;;;;6.87;56.94;98641.31;6138686;23;20002;-96
2023/11/18 06:54:17;;;;;;;0.90;0.70;;;;;;;6.88;56.57;98637.56;6089850;23;20002;-96
2023/11/18 06:56:53;;;;;;;1.30;0.90;;;;;;;6.75;56.70;98617.44;6062512;23;20017;-96
2023/11/18 07:03:19;;;;;;;1.05;0.75;;;;;;;6.77;56.81;98615.31;6093759;23;20081;-96
2023/11/18 07:05:47;;;;;;;1.00;0.80;;;;;;;6.67;57.67;98650.84;6099443;23;20006;-96
2023/11/18 07:08:17;;;;;;;0.60;0.60;;;;;;;6.89;57.27;98657.91;6089831;23;19998;-96
2023/11/18 07:10:52;;;;;;;1.40;1.00;;;;;;;6.90;56.79;98654.16;6130936;23;20076;-94
2023/11/18 07:13:18;;;;;;;1.33;0.93;;;;;;;6.85;56.25;98622.84;6144785;23;19997;-96
2023/11/18 07:15:44;;;;;;;1.05;0.70;;;;;;;7.05;55.81;98640.00;6148324;23;20008;-94
2023/11/18 07:18:22;;;;;;;2.13;1.30;;;;;;;7.11;56.36;98625.56;6170025;23;20017;-95
2023/11/18 07:21:03;;;;;;;1.45;1.00;;;;;;;6.98;55.85;98634.13;6172970;23;20352;-96
2023/11/18 07:23:29;;;;;;;1.50;1.00;;;;;;;7.12;56.29;98651.28;6169436;23;20028;-96
2023/11/18 07:25:57;;;;;;;1.73;1.10;;;;;;;6.88;56.57;98608.13;6170781;23;20304;-95
2023/11/18 07:28:27;;;;;;;2.90;1.25;;;;;;;6.94;57.08;98600.91;6169119;23;20000;-94
2023/11/18 07:31:05;;;;;;;1.85;1.15;;;;;;;7.04;56.35;98596.41;6167879;23;20000;-95
2023/11/18 07:33:32;;;;;;;1.60;1.10;;;;;;;7.18;55.94;98598.53;6169296;23;20004;-94
2023/11/18 07:36:05;;;;;;;1.63;1.05;;;;;;;7.24;56.88;98611.69;6170355;23;20024;-96
2023/11/18 07:38:33;;;;;;;2.28;1.30;;;;;;;7.23;55.75;98577.16;6175225;23;19988;-94
2023/11/18 07:41:02;;;;;;;1.10;0.82;;;;;;;7.51;55.08;98599.13;6173042;23;20005;-95
2023/11/18 07:43:30;;;;;;;0.98;0.70;;;;;;;7.34;54.57;98551.19;6170294;23;20001;-94
2023/11/18 07:45:59;;;;;;;1.42;0.90;;;;;;;7.48;54.25;98561.09;6171607;23;20063;-95
2023/11/18 07:48:31;;;;;;;1.00;0.90;;;;;;;7.44;53.95;98533.22;6172821;23;19997;-96
2023/11/18 07:50:59;;;;;;;1.00;0.90;;;;;;;7.56;54.58;98537.53;6150634;23;20008;-95
2023/11/18 07:53:29;;;;;;;0.70;0.65;;;;;;;7.47;53.89;98569.38;6175945;23;19985;-94
2023/11/18 07:55:58;;;;;;;1.35;0.80;;;;;;;7.59;55.95;98590.56;6146542;23;20005;-94
2023/11/18 07:58:46;;;;;;;1.70;0.80;;;;;;;7.41;54.59;98587.34;6146524;23;20009;-94
2023/11/18 08:01:21;;;;;;;1.38;0.75;;;;;;;7.48;54.63;98595.91;6147913;23;20022;-96
2023/11/18 08:03:47;;;;;;;1.02;0.80;;;;;;;7.34;54.61;98589.47;6171911;23;20043;-95
2023/11/18 08:06:13;;;;;;;3.30;1.02;;;;;;;7.29;55.14;98598.31;6150870;23;20001;-94
2023/11/18 08:08:42;;;;;;;5.28;0.80;;;;;;;7.36;54.75;98613.31;6148127;23;20004;-94
2023/11/18 08:11:11;;;;;;;0.93;0.80;;;;;;;7.20;54.41;98596.41;6172330;23;20067;-94
2023/11/18 08:16:32;;;;;;;0.90;0.63;;;;;;;7.18;54.21;98603.91;6160769;23;20032;-96
2023/11/18 08:19:08;;;;;;;4.63;0.90;;;;;;;7.46;54.08;98640.13;6172407;23;20009;-94
2023/11/18 08:21:39;;;;;;;1.50;0.88;;;;;;;7.15;55.06;98602.56;6171772;23;20004;-95
2023/11/18 08:24:07;;;;;;;1.10;0.70;;;;;;;7.20;55.80;98617.84;6146149;23;20017;-95
2023/11/18 08:26:36;;;;;;;1.88;1.10;;;;;;;7.26;54.35;98606.06;6171580;23;20076;-95
2023/11/18 08:29:03;;;;;;;4.18;1.75;;;;;;;7.29;54.18;98616.25;6144820;23;19997;-94
2023/11/18 08:31:32;;;;;;;1.75;1.05;;;;;;;7.35;54.01;98604.47;6144393;23;20008;-94
2023/11/18 08:33:58;;;;;;;3.78;1.08;;;;;;;7.29;54.43;98605.53;6177489;23;20004;-96
2023/11/18 08:36:33;;;;;;;2.33;1.10;;;;;;;7.27;55.25;98587.06;6149357;23;20096;-94
2023/11/18 08:39:07;;;;;;;1.48;0.80;;;;;;;7.29;54.26;98584.91;6173728;23;20005;-95
2023/11/18 08:41:56;;;;;;;1.58;1.02;;;;;;;7.48;53.90;98621.91;6150349;23;20012;-95
2023/11/18 08:44:21;;;;;;;3.97;0.88;;;;;;;7.19;54.25;98592.94;6197874;23;20007;-95
2023/11/18 08:46:48;;;;;;;1.15;1.02;;;;;;;7.23;55.11;98590.53;6147090;23;20016;-96
2023/11/18 08:52:26;;;;;;;1.35;0.82;;;;;;;7.08;53.83;98605.50;6176835;23;20001;-95
2023/11/18 08:55:17;;;;;;;1.23;0.90;;;;;;;7.09;54.97;98588.34;6173331;23;20008;-96
2023/11/18 08:58:13;;;;;;;;;;;;;;;;;;;;;
2023/11/18 09:00:51;;;;;;;1.98;0.88;;;;;;;6.99;54.25;98592.88;6175379;23;20021;-95
2023/11/18 09:03:43;;;;;;;1.38;0.80;;;;;;;7.09;55.07;98599.06;6167678;23;20020;-96
2023/11/18 09:12:02;;;;;;;1.45;0.98;;;;;;;6.88;55.82;98603.56;6237424;22;20016;-96
2023/11/18 09:14:54;;;;;;;0.73;0.70;;;;;;;6.97;55.32;98603.88;6187982;23;19997;-95
2023/11/18 09:17:44;;;;;;;1.00;0.75;;;;;;;6.81;56.29;98603.03;6126496;23;20435;-95
2023/11/18 09:20:11;;;;;;;1.17;0.98;;;;;;;7.06;56.24;98631.72;6166665;23;20065;-95
2023/11/18 09:22:40;;;;;;;1.38;0.85;;;;;;;7.20;54.97;98639.25;6170981;23;20008;-95
2023/11/18 09:25:09;;;;;;;2.45;1.00;;;;;;;7.08;54.82;98612.75;6145519;23;20008;-95
2023/11/18 09:27:51;;;;;;;;;;;;;;;;;;;;;
2023/11/18 09:30:26;;;;;;;1.08;0.90;;;;;;;6.95;55.52;98610.53;6173605;23;20044;-94
2023/11/18 09:32:54;;;;;;;1.58;0.90;;;;;;;6.90;55.38;98607.88;6168027;23;20420;-95
2023/11/18 09:35:31;;;;;;;0.90;0.70;;;;;;;6.79;56.38;98599.00;6152647;23;20003;-95
2023/11/18 09:38:05;;;;;;;1.00;0.82;;;;;;;6.88;56.12;98603.56;6185446;23;20076;-96
2023/11/18 09:41:07;;;;;;;3.05;1.05;;;;;;;6.97;57.12;98595.84;6154119;23;20084;-96
2023/11/18 09:43:45;;;;;;;0.95;0.70;;;;;;;6.99;55.58;98592.88;6121719;23;20006;-96
2023/11/18 09:46:23;;;;;;;1.58;0.80;;;;;;;7.05;54.86;98606.03;6100065;23;20018;-95
2023/11/18 09:49:53;;;;;;;1.17;0.88;;;;;;;6.85;54.76;98571.19;6117478;23;20002;-96
2023/11/18 09:52:37;;;;;;;1.90;1.00;;;;;;;6.82;55.50;98585.88;6120469;23;20009;-96
2023/11/18 09:55:19;;;;;;;1.55;1.42;;;;;;;6.87;56.36;98582.44;6115418;23;20010;-95
2023/11/18 09:57:53;;;;;;;1.45;0.90;;;;;;;6.91;56.10;98588.06;6132640;23;20056;-95
2023/11/18 10:00:32;;;;;;;1.33;0.98;;;;;;;7.16;55.89;98614.06;6135905;23;20373;-96
2023/11/18 10:03:03;;;;;;;3.38;0.90;;;;;;;6.92;54.81;98606.53;6126248;23;20005;-93
2023/11/18 10:05:30;;;;;;;2.15;0.98;;;;;;;6.64;55.83;98591.72;6127626;23;20008;-94
2023/11/18 10:08:05;;;;;;;1.35;0.90;;;;;;;6.70;55.69;98609.38;6128800;23;20005;-94
2023/11/18 10:10:35;;;;;;;1.17;0.70;;;;;;;6.65;56.27;98606.72;6105858;23;20389;-93
2023/11/18 10:13:04;;;;;;;0.80;0.70;;;;;;;6.76;56.27;98628.94;6128827;23;20031;-92
2023/11/18 10:15:31;;;;;;;1.60;1.00;;;;;;;6.85;56.54;98632.75;6189008;23;20444;-95
2023/11/18 10:18:00;;;;;;;1.42;0.77;;;;;;;6.70;56.16;98598.69;6169213;23;20428;-94
2023/11/18 10:20:47;;;;;;;1.23;0.75;;;;;;;6.84;56.30;98631.91;6146724;23;20011;-95
2023/11/18 10:23:18;;;;;;;3.70;1.70;;;;;;;6.56;56.25;98600.25;6194878;23;20000;-94
2023/11/18 10:25:48;;;;;;;1.13;0.80;;;;;;;6.73;56.51;98632.16;6171585;23;20011;-94
2023/11/18 10:28:32;;;;;;;2.15;1.20;;;;;;;6.71;56.57;98615.56;6192185;23;20628;-92
2023/11/18 10:31:00;;;;;;;1.95;0.70;;;;;;;6.68;56.20;98590.13;6170934;23;20007;-94
2023/11/18 10:36:25;;;;;;;0.98;0.70;;;;;;;6.71;56.74;98618.25;6172903;23;19997;-93
2023/11/18 10:38:55;;;;;;;1.20;0.88;;;;;;;6.63;56.12;98619.53;6144794;23;20051;-95
2023/11/18 10:41:21;;;;;;;1.70;0.80;;;;;;;6.61;56.50;98597.59;6146331;23;20073;-94
2023/11/18 10:43:52;;;;;;;1.27;0.95;;;;;;;6.61;56.50;98600.28;6145305;23;20000;-94
2023/11/18 10:46:20;;;;;;;1.05;0.90;;;;;;;6.50;56.92;98602.09;6170075;23;20419;-94
2023/11/18 10:48:50;;;;;;;1.27;0.90;;;;;;;6.55;56.81;98604.78;6145944;23;19992;-93
2023/11/18 10:51:26;;;;;;;2.53;1.48;;;;;;;6.50;57.61;98579.91;6145448;23;20038;-94
2023/11/18 10:54:00;;;;;;;3.65;1.83;;;;;;;6.54;56.60;98571.09;6171591;23;20474;-94
2023/11/18 10:56:29;;;;;;;3.17;1.00;;;;;;;6.46;57.08;98584.97;6149665;23;20028;-94
2023/11/18 10:59:08;;;;;;;2.38;1.38;;;;;;;6.40;58.38;98592.16;6146186;23;20059;-96
2023/11/18 11:01:43;;;;;;;1.55;0.90;;;;;;;6.51;56.73;98568.94;6145506;23;20092;-92
2023/11/18 11:04:20;;;;;;;4.13;0.80;;;;;;;6.48;57.00;98572.13;6169734;23;20039;-95
2023/11/18 11:06:52;;;;;;;1.73;1.08;;;;;;;6.34;57.46;98568.34;6149700;23;20027;-92
2023/11/18 11:09:25;;;;;;;1.00;0.77;;;;;;;6.41;57.57;98585.75;6167281;23;20004;-89
2023/11/18 11:12:08;;;;;;;1.95;1.10;;;;;;;6.45;57.88;98580.66;6171605;23;20024;-93
2023/11/18 11:14:59;;;;;;;;;;;;;;;6.60;57.21;98593.28;6196397;23;20005;-94
2023/11/18 11:17:29;;;;;;;1.10;0.90;;;;;;;6.47;57.42;98583.88;6200013;23;19958;-93
2023/11/18 11:23:10;;;;;;;0.95;0.73;;;;;;;6.71;57.57;98580.78;6198125;23;20394;-93
2023/11/18 11:25:46;;;;;;;1.50;0.90;;;;;;;6.66;57.16;98574.34;6194853;23;20137;-94
2023/11/18 11:28:23;;;;;;;2.63;1.15;;;;;;;6.57;57.04;98557.19;6196980;23;20016;-94
2023/11/18 11:30:59;;;;;;;2.42;1.30;;;;;;;6.78;57.64;98576.78;6171422;23;20005;-95
2023/11/18 11:33:58;;;;;;;1.40;1.05;;;;;;;6.83;56.54;98568.78;6193691;23;20005;-96
2023/11/18 11:36:31;;;;;;;1.60;1.08;;;;;;;6.62;56.39;98538.50;6194340;23;20004;-94
2023/11/18 11:39:03;;;;;;;3.28;1.42;;;;;;;6.51;56.99;98530.69;6146822;23;20375;-95
2023/11/18 11:41:34;;;;;;;1.70;1.23;;;;;;;6.64;56.98;98544.38;6144501;23;20008;-95
2023/11/18 11:44:10;;;;;;;;;;;;;;;;;;;;;
2023/11/18 11:47:40;;;;;;;;;;;;;;;;;;;;;
2023/11/18 11:50:14;;;;;;;1.65;1.00;;;;;;;6.93;56.29;98584.06;6208589;23;20028;-96
2023/11/18 11:52:48;;;;;;;1.40;0.93;;;;;;;6.71;56.66;98548.69;6171053;23;20001;-96
2023/11/18 11:55:36;;;;;;;1.02;0.82;;;;;;;6.55;57.02;98535.25;6145176;23;20004;-93
2023/11/18 12:01:37;;;;;;;1.15;0.98;;;;;;;6.62;56.97;98546.53;6141927;23;20002;-94
2023/11/18 12:04:15;;;;;;;2.05;1.13;;;;;;;6.63;56.85;98545.44;6136126;23;20000;-95
2023/11/18 12:07:03;;;;;;;;;;;;;;;;;;;;;
2023/11/18 12:09:37;;;;;;;2.40;1.60;;;;;;;6.52;57.99;98557.19;6174266;23;20083;-92
2023/11/18 12:12:04;;;;;;;2.22;1.17;;;;;;;6.57;58.41;98543.81;6114735;23;20017;-90
2023/11/18 12:14:32;;;;;;;1.48;1.15;;;;;;;6.51;59.12;98566.25;6114067;23;20012;-91
2023/11/18 12:17:13;;;;;;;1.40;1.00;;;;;;;6.56;60.68;98560.94;6139908;23;20001;-92
2023/11/18 12:19:58;;;;;;;1.92;1.10;;;;;;;6.44;62.12;98563.03;6117643;23;20012;-92
2023/11/18 12:22:26;;;;;;;2.63;1.80;;;;;;;6.33;63.49;98537.31;6120201;23;20431;-93
2023/11/18 12:25:06;;;;;;;1.80;1.30;;;;;;;6.27;63.18;98566.69;6113337;23;19997;-92
2023/11/18 12:27:43;;;;;;;3.25;1.40;;;;;;;6.33;64.16;98574.72;6162416;23;20028;-92
2023/11/18 12:30:25;;;;;;;2.10;1.40;;;;;;;6.29;67.87;98582.47;6139033;23;20028;-94
2023/11/18 12:33:05;;;;;;;2.78;1.73;;;;;;;6.31;65.21;98577.69;6164328;23;20024;-89
2023/11/18 12:36:03;;;;;;;2.78;1.60;;;;;;;6.34;65.61;98579.81;6164074;23;20344;-96
2023/11/18 12:38:45;;;;;;;1.77;1.17;;;;;;;6.18;65.71;98588.81;6163441;23;20005;-94